sensor_id;sensor_type;location;lat;lon;timestamp;pressure;altitude;pressure_sealevel;temperature;humidity
10921;BME280;5513;50.580;8.818;2023-06-24T00:02:15;99911.81;;;17.37;100.00
10921;BME280;5513;50.580;8.818;2023-06-24T00:04:43;99911.72;;;17.27;100.00
10921;BME280;5513;50.580;8.818;2023-06-24T00:07:11;99908.94;;;17.29;100.00
10921;BME280;5513;50.580;8.818;2023-06-24T00:09:41;99913.53;;;17.27;100.00
10921;BME280;5513;50.580;8.818;2023-06-24T00:12:09;99916.72;;;17.09;100.00
10921;BME280;5513;50.580;8.818;2023-06-24T00:14:47;99910.41;;;17.10;100.00
10921;BME280;5513;50.580;8.818;2023-06-24T00:17:16;99918.78;;;17.06;100.00
10921;BME280;5513;50.580;8.818;2023-06-24T00:19:45;99926.81;;;17.17;100.00
10921;BME280;5513;50.580;8.818;2023-06-24T00:22:13;99925.97;;;17.28;100.00
10921;BME280;5513;50.580;8.818;2023-06-24T00:24:45;99916.72;;;17.21;100.00
10921;BME280;5513;50.580;8.818;2023-06-24T00:27:18;99917.53;;;16.76;100.00
10921;BME280;5513;50.580;8.818;2023-06-24T00:29:50;99917.91;;;16.94;100.00
10921;BME280;5513;50.580;8.818;2023-06-24T00:32:18;99916.34;;;16.92;100.00
10921;BME280;5513;50.580;8.818;2023-06-24T00:34:47;99912.56;;;16.94;100.00
10921;BME280;5513;50.580;8.818;2023-06-24T00:37:17;99912.22;;;16.99;100.00
10921;BME280;5513;50.580;8.818;2023-06-24T00:39:45;99913.88;;;16.88;100.00
10921;BME280;5513;50.580;8.818;2023-06-24T00:42:14;99918.03;;;16.46;100.00
10921;BME280;5513;50.580;8.818;2023-06-24T00:44:42;99917.59;;;16.64;100.00
10921;BME280;5513;50.580;8.818;2023-06-24T00:47:12;99927.88;;;16.70;100.00
10921;BME280;5513;50.580;8.818;2023-06-24T00:49:41;99928.00;;;16.79;100.00
10921;BME280;5513;50.580;8.818;2023-06-24T00:52:12;99941.63;;;16.87;100.00
10921;BME280;5513;50.580;8.818;2023-06-24T00:54:42;99936.97;;;16.78;100.00
10921;BME280;5513;50.580;8.818;2023-06-24T00:57:12;99937.94;;;16.77;100.00
10921;BME280;5513;50.580;8.818;2023-06-24T00:59:40;99932.41;;;16.92;100.00
10921;BME280;5513;50.580;8.818;2023-06-24T01:02:13;99936.19;;;17.00;100.00
10921;BME280;5513;50.580;8.818;2023-06-24T01:04:42;99926.91;;;16.93;100.00
10921;BME280;5513;50.580;8.818;2023-06-24T01:07:11;99927.25;;;16.88;100.00
10921;BME280;5513;50.580;8.818;2023-06-24T01:09:39;99925.69;;;16.86;100.00
10921;BME280;5513;50.580;8.818;2023-06-24T01:12:08;99935.97;;;16.68;100.00
10921;BME280;5513;50.580;8.818;2023-06-24T01:14:37;99935.91;;;16.81;100.00
10921;BME280;5513;50.580;8.818;2023-06-24T01:17:10;99931.88;;;16.75;100.00
10921;BME280;5513;50.580;8.818;2023-06-24T01:19:53;99926.34;;;16.66;100.00
10921;BME280;5513;50.580;8.818;2023-06-24T01:22:37;99927.91;;;16.57;100.00
10921;BME280;5513;50.580;8.818;2023-06-24T01:25:28;99922.63;;;16.44;100.00
10921;BME280;5513;50.580;8.818;2023-06-24T01:28:20;99924.91;;;16.38;100.00
10921;BME280;5513;50.580;8.818;2023-06-24T01:33:56;99919.75;;;16.58;100.00
10921;BME280;5513;50.580;8.818;2023-06-24T01:36:30;99928.97;;;16.43;100.00
10921;BME280;5513;50.580;8.818;2023-06-24T01:39:02;99925.06;;;16.47;100.00
10921;BME280;5513;50.580;8.818;2023-06-24T01:41:35;99923.78;;;16.29;100.00
10921;BME280;5513;50.580;8.818;2023-06-24T01:44:07;99927.38;;;16.41;100.00
10921;BME280;5513;50.580;8.818;2023-06-24T01:46:37;99919.66;;;16.25;100.00
10921;BME280;5513;50.580;8.818;2023-06-24T01:49:11;99922.75;;;16.43;100.00
10921;BME280;5513;50.580;8.818;2023-06-24T01:51:43;99922.47;;;16.35;100.00
10921;BME280;5513;50.580;8.818;2023-06-24T01:54:16;99927.84;;;16.11;100.00
10921;BME280;5513;50.580;8.818;2023-06-24T01:56:47;99927.84;;;16.11;100.00
10921;BME280;5513;50.580;8.818;2023-06-24T01:59:17;99936.13;;;16.19;100.00
10921;BME280;5513;50.580;8.818;2023-06-24T02:01:47;99943.13;;;16.09;100.00
10921;BME280;5513;50.580;8.818;2023-06-24T02:04:17;99933.47;;;16.19;100.00
10921;BME280;5513;50.580;8.818;2023-06-24T02:06:47;99936.66;;;16.24;100.00
10921;BME280;5513;50.580;8.818;2023-06-24T02:09:18;99934.97;;;16.23;100.00
10921;BME280;5513;50.580;8.818;2023-06-24T02:11:48;99941.47;;;16.19;100.00
10921;BME280;5513;50.580;8.818;2023-06-24T02:14:17;99939.91;;;16.16;100.00
10921;BME280;5513;50.580;8.818;2023-06-24T02:16:47;99943.09;;;15.97;100.00
10921;BME280;5513;50.580;8.818;2023-06-24T02:19:27;99936.59;;;15.89;100.00
10921;BME280;5513;50.580;8.818;2023-06-24T02:21:58;99936.88;;;15.97;100.00
10921;BME280;5513;50.580;8.818;2023-06-24T02:24:28;99939.09;;;15.79;100.00
10921;BME280;5513;50.580;8.818;2023-06-24T02:26:58;99943.03;;;15.86;100.00
10921;BME280;5513;50.580;8.818;2023-06-24T02:29:28;99942.03;;;15.63;100.00
10921;BME280;5513;50.580;8.818;2023-06-24T02:31:57;99945.94;;;15.70;100.00
10921;BME280;5513;50.580;8.818;2023-06-24T02:34:28;99941.34;;;15.72;100.00
10921;BME280;5513;50.580;8.818;2023-06-24T02:36:57;99947.78;;;15.70;100.00
10921;BME280;5513;50.580;8.818;2023-06-24T02:39:25;99936.91;;;15.48;100.00
10921;BME280;5513;50.580;8.818;2023-06-24T02:41:54;99945.75;;;15.61;100.00
10921;BME280;5513;50.580;8.818;2023-06-24T02:44:23;99937.44;;;15.65;100.00
10921;BME280;5513;50.580;8.818;2023-06-24T02:46:53;99938.66;;;15.72;100.00
10921;BME280;5513;50.580;8.818;2023-06-24T02:49:23;99936.09;;;15.84;100.00
10921;BME280;5513;50.580;8.818;2023-06-24T02:51:53;99926.09;;;15.74;100.00
10921;BME280;5513;50.580;8.818;2023-06-24T02:54:21;99927.72;;;15.64;100.00
10921;BME280;5513;50.580;8.818;2023-06-24T02:56:50;99929.91;;;15.70;100.00
10921;BME280;5513;50.580;8.818;2023-06-24T02:59:19;99934.13;;;15.62;100.00
10921;BME280;5513;50.580;8.818;2023-06-24T03:01:50;99938.06;;;15.43;100.00
10921;BME280;5513;50.580;8.818;2023-06-24T03:04:19;99946.19;;;15.42;100.00
10921;BME280;5513;50.580;8.818;2023-06-24T03:06:48;99936.91;;;15.48;100.00
10921;BME280;5513;50.580;8.818;2023-06-24T03:09:19;99941.41;;;15.34;100.00
10921;BME280;5513;50.580;8.818;2023-06-24T03:11:48;99948.56;;;15.34;100.00
10921;BME280;5513;50.580;8.818;2023-06-24T03:14:16;99943.66;;;15.28;100.00
10921;BME280;5513;50.580;8.818;2023-06-24T03:16:45;99950.47;;;15.32;100.00
10921;BME280;5513;50.580;8.818;2023-06-24T03:19:14;99955.53;;;15.11;100.00
10921;BME280;5513;50.580;8.818;2023-06-24T03:21:42;99946.66;;;15.23;100.00
10921;BME280;5513;50.580;8.818;2023-06-24T03:24:12;99950.63;;;15.17;100.00
10921;BME280;5513;50.580;8.818;2023-06-24T03:26:43;99958.28;;;15.22;100.00
10921;BME280;5513;50.580;8.818;2023-06-24T03:29:12;99957.97;;;15.14;100.00
10921;BME280;5513;50.580;8.818;2023-06-24T03:31:40;99957.97;;;15.14;100.00
10921;BME280;5513;50.580;8.818;2023-06-24T03:34:12;99960.13;;;15.09;100.00
10921;BME280;5513;50.580;8.818;2023-06-24T03:36:41;99964.16;;;15.14;100.00
10921;BME280;5513;50.580;8.818;2023-06-24T03:39:09;99959.38;;;15.20;100.00
10921;BME280;5513;50.580;8.818;2023-06-24T03:41:38;99956.81;;;15.18;100.00
10921;BME280;5513;50.580;8.818;2023-06-24T03:44:08;99955.00;;;15.06;100.00
10921;BME280;5513;50.580;8.818;2023-06-24T03:46:36;99958.81;;;15.02;100.00
10921;BME280;5513;50.580;8.818;2023-06-24T03:49:05;99954.91;;;15.07;100.00
10921;BME280;5513;50.580;8.818;2023-06-24T03:51:33;99961.28;;;15.17;100.00
10921;BME280;5513;50.580;8.818;2023-06-24T03:54:01;99968.44;;;15.30;100.00
10921;BME280;5513;50.580;8.818;2023-06-24T03:56:29;99966.41;;;15.21;100.00
10921;BME280;5513;50.580;8.818;2023-06-24T03:58:57;99969.16;;;15.32;100.00
10921;BME280;5513;50.580;8.818;2023-06-24T04:01:28;99967.78;;;15.39;100.00
10921;BME280;5513;50.580;8.818;2023-06-24T04:03:58;99964.56;;;15.46;100.00
10921;BME280;5513;50.580;8.818;2023-06-24T04:06:27;99962.94;;;15.44;100.00
10921;BME280;5513;50.580;8.818;2023-06-24T04:08:55;99958.50;;;15.44;100.00
10921;BME280;5513;50.580;8.818;2023-06-24T04:11:23;99966.03;;;15.51;100.00
10921;BME280;5513;50.580;8.818;2023-06-24T04:13:52;99981.09;;;15.52;100.00
10921;BME280;5513;50.580;8.818;2023-06-24T04:16:22;99983.22;;;15.59;100.00
10921;BME280;5513;50.580;8.818;2023-06-24T04:18:51;99981.44;;;15.47;100.00
10921;BME280;5513;50.580;8.818;2023-06-24T04:21:20;99981.88;;;15.66;100.00
10921;BME280;5513;50.580;8.818;2023-06-24T04:23:49;99980.69;;;15.70;100.00
10921;BME280;5513;50.580;8.818;2023-06-24T04:26:18;99980.53;;;15.85;100.00
10921;BME280;5513;50.580;8.818;2023-06-24T04:28:47;99984.13;;;15.96;100.00
10921;BME280;5513;50.580;8.818;2023-06-24T04:31:17;99985.59;;;16.00;100.00
10921;BME280;5513;50.580;8.818;2023-06-24T04:33:46;99989.78;;;16.05;100.00
10921;BME280;5513;50.580;8.818;2023-06-24T04:36:19;99983.59;;;16.04;100.00
10921;BME280;5513;50.580;8.818;2023-06-24T04:38:47;99990.16;;;15.87;100.00
10921;BME280;5513;50.580;8.818;2023-06-24T04:41:15;99983.78;;;16.01;100.00
10921;BME280;5513;50.580;8.818;2023-06-24T04:43:45;99984.38;;;16.17;100.00
10921;BME280;5513;50.580;8.818;2023-06-24T04:46:13;99978.78;;;16.20;100.00
10921;BME280;5513;50.580;8.818;2023-06-24T04:48:43;99981.53;;;16.31;100.00
10921;BME280;5513;50.580;8.818;2023-06-24T04:51:11;99991.75;;;16.38;100.00
10921;BME280;5513;50.580;8.818;2023-06-24T04:53:41;99977.66;;;16.36;100.00
10921;BME280;5513;50.580;8.818;2023-06-24T04:56:09;99981.44;;;16.33;100.00
10921;BME280;5513;50.580;8.818;2023-06-24T04:58:38;99980.13;;;16.50;100.00
10921;BME280;5513;50.580;8.818;2023-06-24T05:01:06;99982.25;;;16.57;100.00
10921;BME280;5513;50.580;8.818;2023-06-24T05:03:35;99989.66;;;16.54;100.00
10921;BME280;5513;50.580;8.818;2023-06-24T05:06:04;99985.66;;;16.59;100.00
10921;BME280;5513;50.580;8.818;2023-06-24T05:08:33;99990.66;;;16.64;100.00
10921;BME280;5513;50.580;8.818;2023-06-24T05:11:03;99990.59;;;16.77;100.00
10921;BME280;5513;50.580;8.818;2023-06-24T05:13:32;99990.13;;;16.72;100.00
10921;BME280;5513;50.580;8.818;2023-06-24T05:16:00;99991.69;;;16.74;100.00
10921;BME280;5513;50.580;8.818;2023-06-24T05:18:29;99994.91;;;16.79;100.00
10921;BME280;5513;50.580;8.818;2023-06-24T05:20:58;99998.66;;;16.88;100.00
10921;BME280;5513;50.580;8.818;2023-06-24T05:23:26;100000.75;;;16.96;100.00
10921;BME280;5513;50.580;8.818;2023-06-24T05:25:55;100000.63;;;16.97;100.00
10921;BME280;5513;50.580;8.818;2023-06-24T05:28:25;99995.91;;;17.01;100.00
10921;BME280;5513;50.580;8.818;2023-06-24T05:30:54;99990.72;;;17.10;100.00
10921;BME280;5513;50.580;8.818;2023-06-24T05:33:22;99992.16;;;17.26;100.00
10921;BME280;5513;50.580;8.818;2023-06-24T05:35:50;99992.06;;;17.38;100.00
10921;BME280;5513;50.580;8.818;2023-06-24T05:38:18;99988.03;;;17.33;100.00
10921;BME280;5513;50.580;8.818;2023-06-24T05:40:47;99994.38;;;17.43;100.00
10921;BME280;5513;50.580;8.818;2023-06-24T05:43:16;99988.41;;;17.39;100.00
10921;BME280;5513;50.580;8.818;2023-06-24T05:45:46;99988.78;;;17.46;100.00
10921;BME280;5513;50.580;8.818;2023-06-24T05:48:16;99990.84;;;17.42;100.00
10921;BME280;5513;50.580;8.818;2023-06-24T05:50:44;99988.28;;;17.63;100.00
10921;BME280;5513;50.580;8.818;2023-06-24T05:53:12;99993.31;;;17.57;100.00
10921;BME280;5513;50.580;8.818;2023-06-24T05:55:41;99979.28;;;17.87;100.00
10921;BME280;5513;50.580;8.818;2023-06-24T05:58:10;99979.53;;;17.84;100.00
10921;BME280;5513;50.580;8.818;2023-06-24T06:00:39;99975.78;;;17.86;100.00
10921;BME280;5513;50.580;8.818;2023-06-24T06:03:09;99977.91;;;18.03;100.00
10921;BME280;5513;50.580;8.818;2023-06-24T06:05:38;99991.31;;;18.03;100.00
10921;BME280;5513;50.580;8.818;2023-06-24T06:08:06;99986.88;;;18.14;100.00
10921;BME280;5513;50.580;8.818;2023-06-24T06:10:34;99974.91;;;18.29;100.00
10921;BME280;5513;50.580;8.818;2023-06-24T06:13:03;99980.19;;;18.51;100.00
10921;BME280;5513;50.580;8.818;2023-06-24T06:15:34;99979.13;;;18.43;100.00
10921;BME280;5513;50.580;8.818;2023-06-24T06:18:04;99978.81;;;18.68;100.00
10921;BME280;5513;50.580;8.818;2023-06-24T06:20:34;99983.66;;;18.95;100.00
10921;BME280;5513;50.580;8.818;2023-06-24T06:23:03;99979.22;;;19.05;100.00
10921;BME280;5513;50.580;8.818;2023-06-24T06:25:31;99978.94;;;19.08;100.00
10921;BME280;5513;50.580;8.818;2023-06-24T06:28:00;99983.72;;;19.05;100.00
10921;BME280;5513;50.580;8.818;2023-06-24T06:30:28;99970.41;;;19.24;100.00
10921;BME280;5513;50.580;8.818;2023-06-24T06:32:57;99980.88;;;19.27;100.00
10921;BME280;5513;50.580;8.818;2023-06-24T06:35:25;99978.38;;;19.35;100.00
10921;BME280;5513;50.580;8.818;2023-06-24T06:37:57;99979.44;;;19.54;100.00
10921;BME280;5513;50.580;8.818;2023-06-24T06:40:25;99981.97;;;19.76;100.00
10921;BME280;5513;50.580;8.818;2023-06-24T06:42:55;99971.38;;;19.84;100.00
10921;BME280;5513;50.580;8.818;2023-06-24T06:45:24;99970.03;;;19.59;100.00
10921;BME280;5513;50.580;8.818;2023-06-24T06:47:52;99976.88;;;19.73;100.00
10921;BME280;5513;50.580;8.818;2023-06-24T06:50:20;99971.25;;;19.95;100.00
10921;BME280;5513;50.580;8.818;2023-06-24T06:52:49;99966.47;;;19.99;100.00
10921;BME280;5513;50.580;8.818;2023-06-24T06:55:18;99975.13;;;20.22;100.00
10921;BME280;5513;50.580;8.818;2023-06-24T06:57:47;99965.78;;;20.26;100.00
10921;BME280;5513;50.580;8.818;2023-06-24T07:00:16;99966.22;;;20.31;100.00
10921;BME280;5513;50.580;8.818;2023-06-24T07:02:44;99964.97;;;20.45;100.00
10921;BME280;5513;50.580;8.818;2023-06-24T07:05:13;99964.41;;;20.70;100.00
10921;BME280;5513;50.580;8.818;2023-06-24T07:07:41;99973.47;;;20.40;100.00
10921;BME280;5513;50.580;8.818;2023-06-24T07:10:12;99970.78;;;20.40;100.00
10921;BME280;5513;50.580;8.818;2023-06-24T07:12:42;99967.81;;;20.63;100.00
10921;BME280;5513;50.580;8.818;2023-06-24T07:15:15;99969.66;;;20.52;100.00
10921;BME280;5513;50.580;8.818;2023-06-24T07:18:00;99970.25;;;20.56;100.00
10921;BME280;5513;50.580;8.818;2023-06-24T07:20:34;99965.72;;;20.56;100.00
10921;BME280;5513;50.580;8.818;2023-06-24T07:23:02;99962.59;;;20.51;100.00
10921;BME280;5513;50.580;8.818;2023-06-24T07:25:32;99958.47;;;20.86;100.00
10921;BME280;5513;50.580;8.818;2023-06-24T07:28:03;99959.69;;;21.01;100.00
10921;BME280;5513;50.580;8.818;2023-06-24T07:30:32;99966.06;;;21.00;100.00
10921;BME280;5513;50.580;8.818;2023-06-24T07:33:01;99963.47;;;21.28;100.00
10921;BME280;5513;50.580;8.818;2023-06-24T07:35:35;99966.09;;;21.47;100.00
10921;BME280;5513;50.580;8.818;2023-06-24T07:38:03;99965.66;;;21.52;100.00
10921;BME280;5513;50.580;8.818;2023-06-24T07:40:32;99963.63;;;21.63;100.00
10921;BME280;5513;50.580;8.818;2023-06-24T07:43:00;99967.88;;;21.66;100.00
10921;BME280;5513;50.580;8.818;2023-06-24T07:45:30;99957.81;;;21.86;100.00
10921;BME280;5513;50.580;8.818;2023-06-24T07:47:59;99959.88;;;22.02;100.00
10921;BME280;5513;50.580;8.818;2023-06-24T07:50:28;99963.16;;;21.95;100.00
10921;BME280;5513;50.580;8.818;2023-06-24T07:52:58;99965.94;;;22.13;100.00
10921;BME280;5513;50.580;8.818;2023-06-24T07:55:28;99972.63;;;22.27;100.00
10921;BME280;5513;50.580;8.818;2023-06-24T08:00:33;99967.41;;;22.43;100.00
10921;BME280;5513;50.580;8.818;2023-06-24T08:03:05;99957.97;;;21.84;100.00
10921;BME280;5513;50.580;8.818;2023-06-24T08:05:34;99958.22;;;22.18;100.00
10921;BME280;5513;50.580;8.818;2023-06-24T08:08:02;99964.31;;;22.38;100.00
10921;BME280;5513;50.580;8.818;2023-06-24T08:10:33;99954.50;;;22.55;100.00
10921;BME280;5513;50.580;8.818;2023-06-24T08:13:02;99955.19;;;22.57;100.00
10921;BME280;5513;50.580;8.818;2023-06-24T08:15:30;99959.69;;;22.84;100.00
10921;BME280;5513;50.580;8.818;2023-06-24T08:18:02;99951.72;;;22.82;100.00
10921;BME280;5513;50.580;8.818;2023-06-24T08:20:30;99951.66;;;22.92;100.00
10921;BME280;5513;50.580;8.818;2023-06-24T08:23:00;99955.59;;;22.98;100.00
10921;BME280;5513;50.580;8.818;2023-06-24T08:25:29;99952.56;;;22.83;100.00
10921;BME280;5513;50.580;8.818;2023-06-24T08:27:58;99946.31;;;22.82;100.00
10921;BME280;5513;50.580;8.818;2023-06-24T08:30:26;99944.56;;;22.91;100.00
10921;BME280;5513;50.580;8.818;2023-06-24T08:32:56;99945.34;;;23.09;100.00
10921;BME280;5513;50.580;8.818;2023-06-24T08:35:28;99948.72;;;23.11;100.00
10921;BME280;5513;50.580;8.818;2023-06-24T08:37:57;99951.94;;;23.15;100.00
10921;BME280;5513;50.580;8.818;2023-06-24T08:40:27;99947.22;;;23.43;100.00
10921;BME280;5513;50.580;8.818;2023-06-24T08:42:58;99949.53;;;23.64;100.00
10921;BME280;5513;50.580;8.818;2023-06-24T08:45:26;99941.16;;;23.83;100.00
10921;BME280;5513;50.580;8.818;2023-06-24T08:47:55;99943.94;;;23.99;100.00
10921;BME280;5513;50.580;8.818;2023-06-24T08:50:31;99949.16;;;24.01;100.00
10921;BME280;5513;50.580;8.818;2023-06-24T08:53:03;99943.41;;;23.96;100.00
10921;BME280;5513;50.580;8.818;2023-06-24T08:55:32;99942.75;;;24.10;100.00
10921;BME280;5513;50.580;8.818;2023-06-24T08:58:04;99942.69;;;24.36;98.24
10921;BME280;5513;50.580;8.818;2023-06-24T09:00:33;99948.59;;;24.40;96.94
10921;BME280;5513;50.580;8.818;2023-06-24T09:03:02;99943.25;;;23.97;100.00
10921;BME280;5513;50.580;8.818;2023-06-24T09:05:32;99950.53;;;24.05;97.15
10921;BME280;5513;50.580;8.818;2023-06-24T09:08:01;99950.22;;;24.08;97.90
10921;BME280;5513;50.580;8.818;2023-06-24T09:10:30;99939.06;;;24.27;94.43
10921;BME280;5513;50.580;8.818;2023-06-24T09:13:00;99942.50;;;24.46;90.38
10921;BME280;5513;50.580;8.818;2023-06-24T09:15:31;99941.50;;;24.55;87.19
10921;BME280;5513;50.580;8.818;2023-06-24T09:18:01;99936.94;;;24.47;88.16
10921;BME280;5513;50.580;8.818;2023-06-24T09:20:32;99932.50;;;24.79;86.99
10921;BME280;5513;50.580;8.818;2023-06-24T09:23:06;99933.88;;;24.91;87.05
10921;BME280;5513;50.580;8.818;2023-06-24T09:25:36;99924.31;;;25.28;85.34
10921;BME280;5513;50.580;8.818;2023-06-24T09:28:05;99925.03;;;24.97;86.37
10921;BME280;5513;50.580;8.818;2023-06-24T09:30:34;99918.75;;;25.29;83.84
10921;BME280;5513;50.580;8.818;2023-06-24T09:33:04;99913.31;;;25.77;81.13
10921;BME280;5513;50.580;8.818;2023-06-24T09:35:39;99910.81;;;25.98;77.30
10921;BME280;5513;50.580;8.818;2023-06-24T09:38:09;99910.97;;;26.28;74.58
10921;BME280;5513;50.580;8.818;2023-06-24T09:40:40;99908.78;;;26.23;72.94
10921;BME280;5513;50.580;8.818;2023-06-24T09:43:20;99905.22;;;26.22;72.60
10921;BME280;5513;50.580;8.818;2023-06-24T09:45:49;99906.09;;;25.92;73.89
10921;BME280;5513;50.580;8.818;2023-06-24T09:48:19;99898.59;;;26.25;72.51
10921;BME280;5513;50.580;8.818;2023-06-24T09:51:04;99890.16;;;26.43;69.27
10921;BME280;5513;50.580;8.818;2023-06-24T09:53:34;99891.56;;;26.76;68.72
10921;BME280;5513;50.580;8.818;2023-06-24T09:56:08;99889.28;;;26.65;71.28
10921;BME280;5513;50.580;8.818;2023-06-24T09:58:41;99898.09;;;26.67;70.93
10921;BME280;5513;50.580;8.818;2023-06-24T10:01:15;99891.94;;;26.73;71.18
10921;BME280;5513;50.580;8.818;2023-06-24T10:03:45;99890.75;;;26.30;70.46
10921;BME280;5513;50.580;8.818;2023-06-24T10:06:18;99883.25;;;26.32;71.62
10921;BME280;5513;50.580;8.818;2023-06-24T10:09:08;99889.84;;;26.61;67.36
10921;BME280;5513;50.580;8.818;2023-06-24T10:11:56;99879.31;;;26.95;59.91
10921;BME280;5513;50.580;8.818;2023-06-24T10:14:36;99878.66;;;26.93;60.42
10921;BME280;5513;50.580;8.818;2023-06-24T10:17:52;99874.56;;;26.60;63.85
10921;BME280;5513;50.580;8.818;2023-06-24T10:20:41;99875.94;;;25.87;66.83
10921;BME280;5513;50.580;8.818;2023-06-24T10:23:14;99869.97;;;26.14;67.63
10921;BME280;5513;50.580;8.818;2023-06-24T10:26:07;99866.41;;;25.91;65.10
10921;BME280;5513;50.580;8.818;2023-06-24T10:29:09;99867.38;;;26.21;62.44
10921;BME280;5513;50.580;8.818;2023-06-24T10:31:53;99858.31;;;26.29;64.11
10921;BME280;5513;50.580;8.818;2023-06-24T10:34:27;99854.75;;;26.51;65.31
10921;BME280;5513;50.580;8.818;2023-06-24T10:36:59;99857.91;;;25.94;70.28
10921;BME280;5513;50.580;8.818;2023-06-24T10:39:44;99856.44;;;25.83;68.76
10921;BME280;5513;50.580;8.818;2023-06-24T10:42:32;99854.09;;;25.80;70.52
10921;BME280;5513;50.580;8.818;2023-06-24T10:45:18;99858.03;;;25.69;70.93
10921;BME280;5513;50.580;8.818;2023-06-24T10:47:52;99855.59;;;25.44;76.18
10921;BME280;5513;50.580;8.818;2023-06-24T10:50:23;99854.13;;;25.72;74.68
10921;BME280;5513;50.580;8.818;2023-06-24T10:52:53;99843.13;;;26.42;70.81
10921;BME280;5513;50.580;8.818;2023-06-24T10:55:24;99842.66;;;27.35;64.81
10921;BME280;5513;50.580;8.818;2023-06-24T10:57:54;99849.47;;;27.97;60.51
10921;BME280;5513;50.580;8.818;2023-06-24T11:00:29;99842.94;;;27.91;57.62
10921;BME280;5513;50.580;8.818;2023-06-24T11:03:09;99835.56;;;28.28;56.72
10921;BME280;5513;50.580;8.818;2023-06-24T11:05:39;99832.88;;;29.19;54.31
10921;BME280;5513;50.580;8.818;2023-06-24T11:08:08;99829.50;;;29.58;50.47
10921;BME280;5513;50.580;8.818;2023-06-24T11:10:45;99825.97;;;29.77;47.88
10921;BME280;5513;50.580;8.818;2023-06-24T11:13:13;99822.84;;;29.74;45.06
10921;BME280;5513;50.580;8.818;2023-06-24T11:15:42;99820.38;;;29.44;45.87
10921;BME280;5513;50.580;8.818;2023-06-24T11:18:10;99824.28;;;29.70;44.96
10921;BME280;5513;50.580;8.818;2023-06-24T11:20:39;99816.94;;;29.77;45.59
10921;BME280;5513;50.580;8.818;2023-06-24T11:23:08;99808.22;;;30.54;44.29
10921;BME280;5513;50.580;8.818;2023-06-24T11:25:40;99804.00;;;30.71;43.69
10921;BME280;5513;50.580;8.818;2023-06-24T11:28:24;99808.81;;;30.76;43.84
10921;BME280;5513;50.580;8.818;2023-06-24T11:30:53;99798.75;;;30.70;44.55
10921;BME280;5513;50.580;8.818;2023-06-24T11:33:28;99795.19;;;30.43;45.91
10921;BME280;5513;50.580;8.818;2023-06-24T11:35:57;99796.44;;;30.07;43.98
10921;BME280;5513;50.580;8.818;2023-06-24T11:38:25;99790.53;;;30.57;43.45
10921;BME280;5513;50.580;8.818;2023-06-24T11:40:59;99793.25;;;30.83;41.51
10921;BME280;5513;50.580;8.818;2023-06-24T11:43:29;99784.81;;;30.78;41.32
10921;BME280;5513;50.580;8.818;2023-06-24T11:45:57;99775.75;;;29.78;41.65
10921;BME280;5513;50.580;8.818;2023-06-24T11:48:27;99777.03;;;29.21;43.21
10921;BME280;5513;50.580;8.818;2023-06-24T11:50:58;99776.66;;;30.71;41.61
10921;BME280;5513;50.580;8.818;2023-06-24T11:53:29;99771.59;;;29.96;46.10
10921;BME280;5513;50.580;8.818;2023-06-24T11:55:59;99771.00;;;30.13;44.56
10921;BME280;5513;50.580;8.818;2023-06-24T11:58:29;99764.88;;;30.05;44.28
10921;BME280;5513;50.580;8.818;2023-06-24T12:01:02;99763.13;;;29.57;43.30
10921;BME280;5513;50.580;8.818;2023-06-24T12:03:32;99764.22;;;29.96;43.21
10921;BME280;5513;50.580;8.818;2023-06-24T12:06:02;99758.56;;;29.84;43.41
10921;BME280;5513;50.580;8.818;2023-06-24T12:08:30;99755.75;;;29.03;43.53
10921;BME280;5513;50.580;8.818;2023-06-24T12:11:17;99753.66;;;29.60;44.21
10921;BME280;5513;50.580;8.818;2023-06-24T12:13:47;99747.63;;;30.11;41.77
10921;BME280;5513;50.580;8.818;2023-06-24T12:16:15;99748.25;;;29.73;41.78
10921;BME280;5513;50.580;8.818;2023-06-24T12:18:44;99742.56;;;29.75;42.32
10921;BME280;5513;50.580;8.818;2023-06-24T12:21:12;99746.25;;;28.58;44.34
10921;BME280;5513;50.580;8.818;2023-06-24T12:23:40;99743.41;;;29.75;42.95
10921;BME280;5513;50.580;8.818;2023-06-24T12:26:09;99743.59;;;30.80;40.58
10921;BME280;5513;50.580;8.818;2023-06-24T12:28:37;99745.91;;;30.76;40.15
10921;BME280;5513;50.580;8.818;2023-06-24T12:31:08;99740.88;;;30.73;40.13
10921;BME280;5513;50.580;8.818;2023-06-24T12:33:36;99739.25;;;30.12;41.49
10921;BME280;5513;50.580;8.818;2023-06-24T12:36:05;99734.97;;;30.63;40.79
10921;BME280;5513;50.580;8.818;2023-06-24T12:38:33;99739.84;;;29.88;42.17
10921;BME280;5513;50.580;8.818;2023-06-24T12:41:03;99739.25;;;30.26;40.90
10921;BME280;5513;50.580;8.818;2023-06-24T12:43:32;99731.63;;;30.47;40.18
10921;BME280;5513;50.580;8.818;2023-06-24T12:46:01;99725.75;;;30.37;40.54
10921;BME280;5513;50.580;8.818;2023-06-24T12:48:31;99724.88;;;29.57;42.05
10921;BME280;5513;50.580;8.818;2023-06-24T12:50:59;99735.94;;;28.88;43.77
10921;BME280;5513;50.580;8.818;2023-06-24T12:53:29;99723.00;;;28.62;44.44
10921;BME280;5513;50.580;8.818;2023-06-24T12:55:57;99713.47;;;29.34;43.56
10921;BME280;5513;50.580;8.818;2023-06-24T12:58:26;99715.34;;;29.40;43.88
10921;BME280;5513;50.580;8.818;2023-06-24T13:00:54;99705.38;;;30.00;43.07
10921;BME280;5513;50.580;8.818;2023-06-24T13:03:22;99714.22;;;30.02;42.46
10921;BME280;5513;50.580;8.818;2023-06-24T13:05:52;99716.34;;;30.07;42.79
10921;BME280;5513;50.580;8.818;2023-06-24T13:08:20;99708.75;;;29.76;44.30
10921;BME280;5513;50.580;8.818;2023-06-24T13:10:49;99705.78;;;29.90;44.36
10921;BME280;5513;50.580;8.818;2023-06-24T13:13:17;99700.13;;;30.25;43.20
10921;BME280;5513;50.580;8.818;2023-06-24T13:15:45;99699.38;;;31.34;41.17
10921;BME280;5513;50.580;8.818;2023-06-24T13:18:14;99701.44;;;31.77;40.62
10921;BME280;5513;50.580;8.818;2023-06-24T13:20:42;99695.41;;;31.61;39.25
10921;BME280;5513;50.580;8.818;2023-06-24T13:23:12;99699.19;;;31.29;40.01
10921;BME280;5513;50.580;8.818;2023-06-24T13:25:41;99699.63;;;31.19;40.03
10921;BME280;5513;50.580;8.818;2023-06-24T13:28:12;99699.81;;;31.31;39.32